sensor_id;sensor_type;location;lat;lon;timestamp;pressure;altitude;pressure_sealevel;temperature;humidity
45403;BME280;47427;51.976;5.326;2023-03-01T00:02:54;103155.06;;;-2.04;81.74
45403;BME280;47427;51.976;5.326;2023-03-01T00:06:17;103157.81;;;-2.02;81.82
45403;BME280;47427;51.976;5.326;2023-03-01T00:09:40;103155.81;;;-2.05;81.96
45403;BME280;47427;51.976;5.326;2023-03-01T00:17:18;103161.38;;;-2.16;82.68
45403;BME280;47427;51.976;5.326;2023-03-01T00:20:49;103157.53;;;-2.20;83.31
45403;BME280;47427;51.976;5.326;2023-03-01T00:24:19;103156.41;;;-2.14;83.36
45403;BME280;47427;51.976;5.326;2023-03-01T00:27:44;103152.06;;;-2.23;83.42
45403;BME280;47427;51.976;5.326;2023-03-01T00:31:12;103158.09;;;-2.22;83.29
45403;BME280;47427;51.976;5.326;2023-03-01T00:34:36;103153.31;;;-2.19;83.70
45403;BME280;47427;51.976;5.326;2023-03-01T00:38:22;103150.19;;;-2.24;83.29
45403;BME280;47427;51.976;5.326;2023-03-01T00:42:00;103153.19;;;-2.28;83.36
45403;BME280;47427;51.976;5.326;2023-03-01T00:45:25;103139.78;;;-2.32;83.93
45403;BME280;47427;51.976;5.326;2023-03-01T00:48:55;103133.25;;;-2.45;84.35
45403;BME280;47427;51.976;5.326;2023-03-01T00:52:23;103144.44;;;-2.44;84.15
45403;BME280;47427;51.976;5.326;2023-03-01T00:56:09;103147.75;;;-2.45;85.03
45403;BME280;47427;51.976;5.326;2023-03-01T00:59:31;103150.69;;;-2.49;85.09
45403;BME280;47427;51.976;5.326;2023-03-01T01:03:02;103134.59;;;-2.55;84.61
45403;BME280;47427;51.976;5.326;2023-03-01T01:07:07;103140.63;;;-2.55;84.69
45403;BME280;47427;51.976;5.326;2023-03-01T01:10:46;103138.44;;;-2.59;85.56
45403;BME280;47427;51.976;5.326;2023-03-01T01:14:32;103135.88;;;-2.66;85.67
45403;BME280;47427;51.976;5.326;2023-03-01T01:18:02;103128.25;;;-2.73;86.59
45403;BME280;47427;51.976;5.326;2023-03-01T01:21:26;103121.66;;;-2.78;86.51
45403;BME280;47427;51.976;5.326;2023-03-01T01:24:51;103119.25;;;-2.77;87.24
45403;BME280;47427;51.976;5.326;2023-03-01T01:28:15;103112.31;;;-2.85;87.14
45403;BME280;47427;51.976;5.326;2023-03-01T01:31:50;103103.50;;;-2.87;87.87
45403;BME280;47427;51.976;5.326;2023-03-01T01:35:27;103109.19;;;-2.90;88.17
45403;BME280;47427;51.976;5.326;2023-03-01T01:38:56;103104.25;;;-2.95;88.21
45403;BME280;47427;51.976;5.326;2023-03-01T01:42:43;103099.69;;;-2.98;88.22
45403;BME280;47427;51.976;5.326;2023-03-01T01:46:33;103100.25;;;-3.00;88.85
45403;BME280;47427;51.976;5.326;2023-03-01T01:50:04;103103.91;;;-2.98;88.61
45403;BME280;47427;51.976;5.326;2023-03-01T01:53:42;103097.13;;;-3.05;89.15
45403;BME280;47427;51.976;5.326;2023-03-01T01:57:18;103086.34;;;-3.17;89.66
45403;BME280;47427;51.976;5.326;2023-03-01T02:00:40;103081.75;;;-3.12;90.23
45403;BME280;47427;51.976;5.326;2023-03-01T02:04:04;103085.75;;;-3.07;90.64
45403;BME280;47427;51.976;5.326;2023-03-01T02:07:28;103088.34;;;-3.07;90.43
45403;BME280;47427;51.976;5.326;2023-03-01T02:10:52;103079.53;;;-3.09;90.82
45403;BME280;47427;51.976;5.326;2023-03-01T02:14:16;103061.22;;;-3.19;90.80
45403;BME280;47427;51.976;5.326;2023-03-01T02:17:39;103080.66;;;-3.14;91.70
45403;BME280;47427;51.976;5.326;2023-03-01T02:21:37;103077.91;;;-3.16;92.15
45403;BME280;47427;51.976;5.326;2023-03-01T02:28:43;103073.16;;;-3.20;92.90
45403;BME280;47427;51.976;5.326;2023-03-01T02:32:07;103066.91;;;-3.22;93.54
45403;BME280;47427;51.976;5.326;2023-03-01T02:35:37;103066.34;;;-3.19;93.79
45403;BME280;47427;51.976;5.326;2023-03-01T02:39:31;103069.88;;;-3.19;94.14
45403;BME280;47427;51.976;5.326;2023-03-01T02:42:57;103065.84;;;-3.24;94.78
45403;BME280;47427;51.976;5.326;2023-03-01T02:46:23;103062.34;;;-3.24;94.99
45403;BME280;47427;51.976;5.326;2023-03-01T02:49:46;103063.09;;;-3.25;95.46
45403;BME280;47427;51.976;5.326;2023-03-01T02:56:52;103055.75;;;-3.22;96.25
45403;BME280;47427;51.976;5.326;2023-03-01T03:00:56;103054.13;;;-3.29;96.68
45403;BME280;47427;51.976;5.326;2023-03-01T03:04:15;103046.59;;;-3.28;97.01
45403;BME280;47427;51.976;5.326;2023-03-01T03:08:02;103046.22;;;-3.31;96.80
45403;BME280;47427;51.976;5.326;2023-03-01T03:11:29;103045.50;;;-3.37;96.64
45403;BME280;47427;51.976;5.326;2023-03-01T03:14:52;103055.41;;;-3.40;97.95
45403;BME280;47427;51.976;5.326;2023-03-01T03:18:16;103058.31;;;-3.37;98.58
45403;BME280;47427;51.976;5.326;2023-03-01T03:21:40;103048.47;;;-3.41;98.80
45403;BME280;47427;51.976;5.326;2023-03-01T03:25:02;103039.09;;;-3.40;99.86
45403;BME280;47427;51.976;5.326;2023-03-01T03:28:24;103040.19;;;-3.31;100.00
45403;BME280;47427;51.976;5.326;2023-03-01T03:31:47;103034.50;;;-3.36;100.00
45403;BME280;47427;51.976;5.326;2023-03-01T03:35:09;103043.47;;;-3.32;100.00
45403;BME280;47427;51.976;5.326;2023-03-01T03:38:32;103035.97;;;-3.31;100.00
45403;BME280;47427;51.976;5.326;2023-03-01T03:41:55;103045.50;;;-3.37;100.00
45403;BME280;47427;51.976;5.326;2023-03-01T03:45:17;103030.50;;;-3.41;100.00
45403;BME280;47427;51.976;5.326;2023-03-01T03:48:43;103033.41;;;-3.38;100.00
45403;BME280;47427;51.976;5.326;2023-03-01T03:52:06;103039.47;;;-3.37;100.00
45403;BME280;47427;51.976;5.326;2023-03-01T03:55:35;103035.63;;;-3.41;100.00
45403;BME280;47427;51.976;5.326;2023-03-01T03:59:01;103025.00;;;-3.44;100.00
45403;BME280;47427;51.976;5.326;2023-03-01T04:02:22;103025.19;;;-3.50;100.00
45403;BME280;47427;51.976;5.326;2023-03-01T04:05:47;103021.53;;;-3.52;100.00
45403;BME280;47427;51.976;5.326;2023-03-01T04:09:30;103019.34;;;-3.56;100.00
45403;BME280;47427;51.976;5.326;2023-03-01T04:13:01;103030.72;;;-3.54;100.00
45403;BME280;47427;51.976;5.326;2023-03-01T04:16:24;103028.69;;;-3.56;100.00
45403;BME280;47427;51.976;5.326;2023-03-01T04:19:46;103020.25;;;-3.62;100.00
45403;BME280;47427;51.976;5.326;2023-03-01T04:23:17;103034.59;;;-3.64;100.00
45403;BME280;47427;51.976;5.326;2023-03-01T04:26:41;103031.81;;;-3.66;100.00
45403;BME280;47427;51.976;5.326;2023-03-01T04:30:08;103023.41;;;-3.72;100.00
45403;BME280;47427;51.976;5.326;2023-03-01T04:33:31;103033.13;;;-3.69;100.00
45403;BME280;47427;51.976;5.326;2023-03-01T04:36:52;103031.81;;;-3.73;100.00
45403;BME280;47427;51.976;5.326;2023-03-01T04:40:15;103027.25;;;-3.76;100.00
45403;BME280;47427;51.976;5.326;2023-03-01T04:43:39;103026.16;;;-3.78;100.00
45403;BME280;47427;51.976;5.326;2023-03-01T04:47:01;103012.25;;;-3.80;100.00
45403;BME280;47427;51.976;5.326;2023-03-01T04:50:24;103014.28;;;-3.84;100.00
45403;BME280;47427;51.976;5.326;2023-03-01T04:53:46;103007.13;;;-3.87;100.00
45403;BME280;47427;51.976;5.326;2023-03-01T04:57:09;103010.59;;;-3.86;100.00
45403;BME280;47427;51.976;5.326;2023-03-01T05:00:32;103009.84;;;-3.93;100.00
45403;BME280;47427;51.976;5.326;2023-03-01T05:03:53;103011.72;;;-3.92;100.00
45403;BME280;47427;51.976;5.326;2023-03-01T05:07:16;103009.50;;;-3.96;100.00
45403;BME280;47427;51.976;5.326;2023-03-01T05:10:40;102994.31;;;-3.94;100.00
45403;BME280;47427;51.976;5.326;2023-03-01T05:14:04;102982.75;;;-3.98;100.00
45403;BME280;47427;51.976;5.326;2023-03-01T05:17:27;102977.63;;;-3.98;100.00
45403;BME280;47427;51.976;5.326;2023-03-01T05:20:50;102977.47;;;-3.99;100.00
45403;BME280;47427;51.976;5.326;2023-03-01T05:24:13;102978.94;;;-4.01;100.00
45403;BME280;47427;51.976;5.326;2023-03-01T05:27:36;102961.72;;;-4.09;100.00
45403;BME280;47427;51.976;5.326;2023-03-01T05:30:57;102963.19;;;-4.11;100.00
45403;BME280;47427;51.976;5.326;2023-03-01T05:34:38;102960.63;;;-4.11;100.00
45403;BME280;47427;51.976;5.326;2023-03-01T05:38:01;102949.28;;;-4.14;100.00
45403;BME280;47427;51.976;5.326;2023-03-01T05:41:23;102947.09;;;-4.18;100.00
45403;BME280;47427;51.976;5.326;2023-03-01T05:44:46;102943.44;;;-4.20;100.00
45403;BME280;47427;51.976;5.326;2023-03-01T05:48:09;102938.84;;;-4.22;100.00
45403;BME280;47427;51.976;5.326;2023-03-01T05:51:32;102932.06;;;-4.29;100.00
45403;BME280;47427;51.976;5.326;2023-03-01T05:54:56;102941.78;;;-4.26;100.00
45403;BME280;47427;51.976;5.326;2023-03-01T05:58:19;102934.28;;;-4.32;100.00
45403;BME280;47427;51.976;5.326;2023-03-01T06:01:42;102935.94;;;-4.32;100.00
45403;BME280;47427;51.976;5.326;2023-03-01T06:05:08;102938.50;;;-4.32;100.00
45403;BME280;47427;51.976;5.326;2023-03-01T06:08:30;102937.38;;;-4.34;100.00
45403;BME280;47427;51.976;5.326;2023-03-01T06:12:11;102939.97;;;-4.34;100.00
45403;BME280;47427;51.976;5.326;2023-03-01T06:15:34;102933.19;;;-4.34;100.00
45403;BME280;47427;51.976;5.326;2023-03-01T06:18:56;102932.44;;;-4.33;100.00
45403;BME280;47427;51.976;5.326;2023-03-01T06:22:19;102940.50;;;-4.30;100.00
45403;BME280;47427;51.976;5.326;2023-03-01T06:25:40;102946.91;;;-4.26;100.00
45403;BME280;47427;51.976;5.326;2023-03-01T06:29:03;102944.34;;;-4.26;100.00
45403;BME280;47427;51.976;5.326;2023-03-01T06:32:26;102945.25;;;-4.26;100.00
45403;BME280;47427;51.976;5.326;2023-03-01T06:35:47;102947.81;;;-4.19;100.00
45403;BME280;47427;51.976;5.326;2023-03-01T06:39:10;102942.31;;;-4.15;100.00
45403;BME280;47427;51.976;5.326;2023-03-01T06:42:31;102951.28;;;-4.11;100.00
45403;BME280;47427;51.976;5.326;2023-03-01T06:45:55;102946.50;;;-4.08;100.00
45403;BME280;47427;51.976;5.326;2023-03-01T06:49:18;102948.34;;;-4.07;100.00
45403;BME280;47427;51.976;5.326;2023-03-01T06:52:41;102949.63;;;-3.96;100.00
45403;BME280;47427;51.976;5.326;2023-03-01T06:56:04;102944.69;;;-3.95;100.00
45403;BME280;47427;51.976;5.326;2023-03-01T06:59:27;102941.16;;;-3.88;100.00
45403;BME280;47427;51.976;5.326;2023-03-01T07:02:48;102943.72;;;-3.81;100.00
45403;BME280;47427;51.976;5.326;2023-03-01T07:06:11;102952.31;;;-3.73;100.00
45403;BME280;47427;51.976;5.326;2023-03-01T07:09:34;102941.84;;;-3.67;100.00
45403;BME280;47427;51.976;5.326;2023-03-01T07:12:58;102947.69;;;-3.54;100.00
45403;BME280;47427;51.976;5.326;2023-03-01T07:16:21;102950.59;;;-3.44;100.00
45403;BME280;47427;51.976;5.326;2023-03-01T07:19:43;102940.47;;;-3.35;100.00
45403;BME280;47427;51.976;5.326;2023-03-01T07:23:07;102947.69;;;-3.17;100.00
45403;BME280;47427;51.976;5.326;2023-03-01T07:26:30;102941.16;;;-2.92;100.00
45403;BME280;47427;51.976;5.326;2023-03-01T07:29:51;102950.31;;;-0.17;100.00
45403;BME280;47427;51.976;5.326;2023-03-01T07:33:14;102944.16;;;2.19;94.27
45403;BME280;47427;51.976;5.326;2023-03-01T07:36:37;102942.94;;;3.87;86.61
45403;BME280;47427;51.976;5.326;2023-03-01T07:40:00;102938.47;;;5.09;80.19
45403;BME280;47427;51.976;5.326;2023-03-01T07:43:23;102941.69;;;6.03;75.14
45403;BME280;47427;51.976;5.326;2023-03-01T07:46:44;102936.34;;;6.81;70.91
45403;BME280;47427;51.976;5.326;2023-03-01T07:50:08;102941.53;;;7.40;66.64
45403;BME280;47427;51.976;5.326;2023-03-01T07:53:32;102950.31;;;8.02;62.73
45403;BME280;47427;51.976;5.326;2023-03-01T07:56:56;102938.06;;;8.52;60.58
45403;BME280;47427;51.976;5.326;2023-03-01T08:00:19;102942.38;;;9.03;58.27
45403;BME280;47427;51.976;5.326;2023-03-01T08:03:42;102944.34;;;9.47;56.36
45403;BME280;47427;51.976;5.326;2023-03-01T08:07:05;102943.00;;;10.08;54.57
45403;BME280;47427;51.976;5.326;2023-03-01T08:10:28;102937.94;;;10.54;52.50
45403;BME280;47427;51.976;5.326;2023-03-01T08:13:49;102941.06;;;11.23;49.69
45403;BME280;47427;51.976;5.326;2023-03-01T08:17:14;102942.75;;;11.68;48.39
45403;BME280;47427;51.976;5.326;2023-03-01T08:20:37;102946.97;;;12.30;47.40
45403;BME280;47427;51.976;5.326;2023-03-01T08:23:58;102944.00;;;12.91;45.12
45403;BME280;47427;51.976;5.326;2023-03-01T08:27:21;102943.03;;;13.25;44.61
45403;BME280;47427;51.976;5.326;2023-03-01T08:30:44;102936.13;;;13.82;42.75
45403;BME280;47427;51.976;5.326;2023-03-01T08:34:09;102922.69;;;14.17;41.40
45403;BME280;47427;51.976;5.326;2023-03-01T08:37:32;102934.63;;;14.47;39.99
45403;BME280;47427;51.976;5.326;2023-03-01T08:40:54;102926.47;;;14.83;38.74
45403;BME280;47427;51.976;5.326;2023-03-01T08:44:17;102914.03;;;15.23;37.70
45403;BME280;47427;51.976;5.326;2023-03-01T08:47:58;102916.19;;;15.55;36.64
45403;BME280;47427;51.976;5.326;2023-03-01T08:51:22;102913.53;;;16.00;36.02
45403;BME280;47427;51.976;5.326;2023-03-01T08:54:48;102907.38;;;16.25;34.89
45403;BME280;47427;51.976;5.326;2023-03-01T08:58:10;102904.50;;;16.71;34.23
45403;BME280;47427;51.976;5.326;2023-03-01T09:01:33;102905.31;;;17.21;32.77
45403;BME280;47427;51.976;5.326;2023-03-01T09:04:55;102911.41;;;17.18;32.28
45403;BME280;47427;51.976;5.326;2023-03-01T09:08:18;102899.25;;;17.53;32.10
45403;BME280;47427;51.976;5.326;2023-03-01T09:11:42;102888.13;;;17.95;31.66
45403;BME280;47427;51.976;5.326;2023-03-01T09:15:06;102888.63;;;18.14;30.44
45403;BME280;47427;51.976;5.326;2023-03-01T09:18:28;102886.06;;;18.50;29.72
45403;BME280;47427;51.976;5.326;2023-03-01T09:21:51;102876.47;;;18.90;29.52
45403;BME280;47427;51.976;5.326;2023-03-01T09:25:16;102875.97;;;19.07;28.68
45403;BME280;47427;51.976;5.326;2023-03-01T09:28:40;102863.75;;;19.16;28.51
45403;BME280;47427;51.976;5.326;2023-03-01T09:32:06;102857.06;;;19.75;27.60
45403;BME280;47427;51.976;5.326;2023-03-01T09:35:29;102858.00;;;20.22;27.26
45403;BME280;47427;51.976;5.326;2023-03-01T09:38:52;102850.59;;;20.06;27.37
45403;BME280;47427;51.976;5.326;2023-03-01T09:42:35;102846.53;;;20.28;26.03
45403;BME280;47427;51.976;5.326;2023-03-01T09:46:03;102849.59;;;20.49;25.81
45403;BME280;47427;51.976;5.326;2023-03-01T09:49:40;102842.13;;;20.30;25.26
45403;BME280;47427;51.976;5.326;2023-03-01T09:53:12;102844.94;;;20.38;24.07
45403;BME280;47427;51.976;5.326;2023-03-01T09:56:59;102842.31;;;20.41;23.92
45403;BME280;47427;51.976;5.326;2023-03-01T10:04:19;102847.72;;;20.97;23.69
45403;BME280;47427;51.976;5.326;2023-03-01T10:08:15;102844.53;;;21.23;24.11
45403;BME280;47427;51.976;5.326;2023-03-01T10:11:48;102841.59;;;21.68;23.52
45403;BME280;47427;51.976;5.326;2023-03-01T10:15:22;102838.72;;;22.29;23.10
45403;BME280;47427;51.976;5.326;2023-03-01T10:18:53;102843.22;;;22.35;22.91
45403;BME280;47427;51.976;5.326;2023-03-01T10:22:30;102835.50;;;22.71;22.31
45403;BME280;47427;51.976;5.326;2023-03-01T10:29:50;102833.75;;;22.78;21.45
45403;BME280;47427;51.976;5.326;2023-03-01T10:33:35;102832.19;;;23.08;20.79
45403;BME280;47427;51.976;5.326;2023-03-01T10:37:21;102830.31;;;22.91;21.18
45403;BME280;47427;51.976;5.326;2023-03-01T10:40:55;102823.28;;;23.04;20.18
45403;BME280;47427;51.976;5.326;2023-03-01T10:44:47;102804.63;;;23.29;19.98
45403;BME280;47427;51.976;5.326;2023-03-01T10:51:39;102783.25;;;23.41;19.83
45403;BME280;47427;51.976;5.326;2023-03-01T10:58:41;102783.44;;;24.06;19.87
45403;BME280;47427;51.976;5.326;2023-03-01T11:02:29;102780.75;;;24.39;19.62
45403;BME280;47427;51.976;5.326;2023-03-01T11:09:23;102760.00;;;23.31;19.17
45403;BME280;47427;51.976;5.326;2023-03-01T11:12:45;102761.84;;;23.49;19.20
45403;BME280;47427;51.976;5.326;2023-03-01T11:16:10;102759.31;;;23.93;18.94
45403;BME280;47427;51.976;5.326;2023-03-01T11:19:32;102755.72;;;23.85;18.82
45403;BME280;47427;51.976;5.326;2023-03-01T11:23:14;102751.22;;;24.65;18.46
45403;BME280;47427;51.976;5.326;2023-03-01T11:26:44;102740.53;;;24.46;18.06
45403;BME280;47427;51.976;5.326;2023-03-01T11:33:49;102743.13;;;23.64;18.68
45403;BME280;47427;51.976;5.326;2023-03-01T11:41:08;102737.47;;;21.76;19.67
45403;BME280;47427;51.976;5.326;2023-03-01T11:44:35;102737.53;;;21.85;19.41
45403;BME280;47427;51.976;5.326;2023-03-01T11:49:03;102744.88;;;23.42;18.80
45403;BME280;47427;51.976;5.326;2023-03-01T11:52:56;102739.63;;;24.20;18.71
45403;BME280;47427;51.976;5.326;2023-03-01T11:56:41;102736.03;;;24.23;18.11
45403;BME280;47427;51.976;5.326;2023-03-01T12:04:36;102730.69;;;24.20;17.68
45403;BME280;47427;51.976;5.326;2023-03-01T12:08:36;102713.69;;;24.59;16.69
45403;BME280;47427;51.976;5.326;2023-03-01T12:12:30;102711.91;;;24.61;17.91
45403;BME280;47427;51.976;5.326;2023-03-01T12:24:14;102697.34;;;25.21;17.22
45403;BME280;47427;51.976;5.326;2023-03-01T12:32:02;102706.56;;;24.08;17.50
45403;BME280;47427;51.976;5.326;2023-03-01T12:39:22;102693.84;;;25.00;16.67
45403;BME280;47427;51.976;5.326;2023-03-01T12:50:44;102690.19;;;25.14;16.90
45403;BME280;47427;51.976;5.326;2023-03-01T12:54:22;102689.38;;;24.96;16.59
45403;BME280;47427;51.976;5.326;2023-03-01T12:58:39;102665.72;;;25.66;16.69
45403;BME280;47427;51.976;5.326;2023-03-01T13:02:26;102656.19;;;25.11;16.30
45403;BME280;47427;51.976;5.326;2023-03-01T13:06:04;102648.13;;;25.13;16.49
45403;BME280;47427;51.976;5.326;2023-03-01T13:09:39;102635.72;;;24.92;16.41
45403;BME280;47427;51.976;5.326;2023-03-01T13:13:20;102626.88;;;24.67;16.49
45403;BME280;47427;51.976;5.326;2023-03-01T13:16:42;102620.66;;;24.44;16.69
45403;BME280;47427;51.976;5.326;2023-03-01T13:20:14;102611.63;;;24.75;16.83
45403;BME280;47427;51.976;5.326;2023-03-01T13:23:39;102621.31;;;25.05;16.51
45403;BME280;47427;51.976;5.326;2023-03-01T13:34:03;102620.63;;;24.64;16.63
45403;BME280;47427;51.976;5.326;2023-03-01T13:37:34;102611.75;;;24.47;15.70
45403;BME280;47427;51.976;5.326;2023-03-01T13:41:00;102608.16;;;24.39;16.76
45403;BME280;47427;51.976;5.326;2023-03-01T13:44:34;102600.09;;;24.39;16.49
45403;BME280;47427;51.976;5.326;2023-03-01T13:48:08;102586.63;;;24.67;16.03
45403;BME280;47427;51.976;5.326;2023-03-01T13:51:30;102588.41;;;24.58;15.85
45403;BME280;47427;51.976;5.326;2023-03-01T13:54:53;102577.84;;;24.06;16.37
45403;BME280;47427;51.976;5.326;2023-03-01T13:58:26;102584.13;;;23.57;16.77
45403;BME280;47427;51.976;5.326;2023-03-01T14:02:02;102574.28;;;23.30;17.04
45403;BME280;47427;51.976;5.326;2023-03-01T14:05:24;102580.50;;;23.05;16.99
45403;BME280;47427;51.976;5.326;2023-03-01T14:08:50;102579.47;;;22.64;17.56
45403;BME280;47427;51.976;5.326;2023-03-01T14:16:47;102556.16;;;22.36;17.69
45403;BME280;47427;51.976;5.326;2023-03-01T14:20:18;102557.97;;;22.43;17.97
45403;BME280;47427;51.976;5.326;2023-03-01T14:23:43;102541.06;;;22.52;17.59
45403;BME280;47427;51.976;5.326;2023-03-01T14:27:12;102533.94;;;22.55;17.62
45403;BME280;47427;51.976;5.326;2023-03-01T14:30:55;102532.19;;;22.60;17.74
45403;BME280;47427;51.976;5.326;2023-03-01T14:34:23;102522.09;;;22.02;18.10
45403;BME280;47427;51.976;5.326;2023-03-01T14:37:45;102513.13;;;21.94;18.05
45403;BME280;47427;51.976;5.326;2023-03-01T14:41:20;102505.84;;;21.67;18.11
45403;BME280;47427;51.976;5.326;2023-03-01T14:44:48;102500.41;;;21.50;19.17
45403;BME280;47427;51.976;5.326;2023-03-01T14:48:11;102508.94;;;21.14;19.00
45403;BME280;47427;51.976;5.326;2023-03-01T14:51:41;102499.47;;;21.45;18.53
45403;BME280;47427;51.976;5.326;2023-03-01T14:55:20;102503.63;;;21.14;19.13
45403;BME280;47427;51.976;5.326;2023-03-01T14:58:42;102500.66;;;20.83;19.29
45403;BME280;47427;51.976;5.326;2023-03-01T15:02:18;102508.47;;;20.65;19.28
45403;BME280;47427;51.976;5.326;2023-03-01T15:05:42;102499.59;;;20.64;19.65
45403;BME280;47427;51.976;5.326;2023-03-01T15:09:06;102507.44;;;20.53;19.43
45403;BME280;47427;51.976;5.326;2023-03-01T15:12:41;102506.38;;;20.41;19.70
45403;BME280;47427;51.976;5.326;2023-03-01T15:16:32;102494.81;;;19.72;19.85
45403;BME280;47427;51.976;5.326;2023-03-01T15:19:54;102494.78;;;17.85;21.65
45403;BME280;47427;51.976;5.326;2023-03-01T15:23:29;102490.13;;;16.38;23.24
45403;BME280;47427;51.976;5.326;2023-03-01T15:26:58;102490.00;;;16.05;23.38
45403;BME280;47427;51.976;5.326;2023-03-01T15:30:28;102487.13;;;15.96;23.44
45403;BME280;47427;51.976;5.326;2023-03-01T15:37:47;102486.09;;;14.60;25.23
45403;BME280;47427;51.976;5.326;2023-03-01T15:41:38;102482.22;;;13.16;26.94
45403;BME280;47427;51.976;5.326;2023-03-01T15:48:38;102472.22;;;12.67;28.56
45403;BME280;47427;51.976;5.326;2023-03-01T15:52:01;102474.59;;;12.22;28.83
45403;BME280;47427;51.976;5.326;2023-03-01T15:55:27;102472.78;;;11.46;29.33
45403;BME280;47427;51.976;5.326;2023-03-01T15:58:52;102483.28;;;11.11;30.52
45403;BME280;47427;51.976;5.326;2023-03-01T16:02:14;102476.84;;;11.22;30.97
45403;BME280;47427;51.976;5.326;2023-03-01T16:05:36;102472.91;;;11.32;30.62
45403;BME280;47427;51.976;5.326;2023-03-01T16:08:57;102473.22;;;11.20;31.29
45403;BME280;47427;51.976;5.326;2023-03-01T16:12:19;102479.97;;;10.97;30.95
45403;BME280;47427;51.976;5.326;2023-03-01T16:15:42;102482.38;;;10.76;31.45
45403;BME280;47427;51.976;5.326;2023-03-01T16:19:05;102482.47;;;10.77;31.77
45403;BME280;47427;51.976;5.326;2023-03-01T16:22:28;102479.53;;;10.55;31.95
45403;BME280;47427;51.976;5.326;2023-03-01T16:26:10;102469.28;;;10.27;31.70
45403;BME280;47427;51.976;5.326;2023-03-01T16:29:33;102466.16;;;10.17;32.48
45403;BME280;47427;51.976;5.326;2023-03-01T16:32:55;102471.63;;;9.89;32.72
45403;BME280;47427;51.976;5.326;2023-03-01T16:36:36;102475.34;;;9.47;33.17
45403;BME280;47427;51.976;5.326;2023-03-01T16:39:59;102476.44;;;9.04;34.42
45403;BME280;47427;51.976;5.326;2023-03-01T16:43:22;102472.34;;;8.65;35.08
45403;BME280;47427;51.976;5.326;2023-03-01T16:46:45;102465.94;;;8.32;35.20
45403;BME280;47427;51.976;5.326;2023-03-01T16:50:07;102466.94;;;8.06;36.53
45403;BME280;47427;51.976;5.326;2023-03-01T16:53:30;102465.34;;;7.94;37.63
45403;BME280;47427;51.976;5.326;2023-03-01T16:56:52;102478.50;;;7.68;39.11
45403;BME280;47427;51.976;5.326;2023-03-01T17:00:14;102483.41;;;7.36;39.77
45403;BME280;47427;51.976;5.326;2023-03-01T17:03:38;102486.66;;;7.19;41.84
45403;BME280;47427;51.976;5.326;2023-03-01T17:07:00;102480.31;;;7.02;41.95
45403;BME280;47427;51.976;5.326;2023-03-01T17:10:21;102486.28;;;6.88;42.92
45403;BME280;47427;51.976;5.326;2023-03-01T17:13:46;102489.78;;;6.75;42.91
45403;BME280;47427;51.976;5.326;2023-03-01T17:17:09;102486.00;;;6.58;44.06
45403;BME280;47427;51.976;5.326;2023-03-01T17:20:32;102479.28;;;6.48;44.39
45403;BME280;47427;51.976;5.326;2023-03-01T17:23:56;102476.31;;;6.31;44.62
45403;BME280;47427;51.976;5.326;2023-03-01T17:27:18;102473.97;;;6.10;45.93
45403;BME280;47427;51.976;5.326;2023-03-01T17:30:43;102473.72;;;5.94;46.29
45403;BME280;47427;51.976;5.326;2023-03-01T17:34:05;102478.13;;;5.83;46.79
45403;BME280;47427;51.976;5.326;2023-03-01T17:37:28;102480.75;;;5.71;46.84
45403;BME280;47427;51.976;5.326;2023-03-01T17:40:51;102479.63;;;5.68;46.91
45403;BME280;47427;51.976;5.326;2023-03-01T17:44:13;102477.16;;;5.57;47.73
45403;BME280;47427;51.976;5.326;2023-03-01T17:47:35;102482.59;;;5.49;48.25
45403;BME280;47427;51.976;5.326;2023-03-01T17:50:57;102488.81;;;5.39;48.32
45403;BME280;47427;51.976;5.326;2023-03-01T17:54:19;102493.69;;;5.22;49.35
45403;BME280;47427;51.976;5.326;2023-03-01T17:57:42;102499.00;;;5.12;48.95
45403;BME280;47427;51.976;5.326;2023-03-01T18:01:15;102507.59;;;4.99;49.83
45403;BME280;47427;51.976;5.326;2023-03-01T18:04:36;102492.63;;;4.85;50.62
45403;BME280;47427;51.976;5.326;2023-03-01T18:07:59;102504.59;;;4.71;50.66
45403;BME280;47427;51.976;5.326;2023-03-01T18:11:24;102502.06;;;4.61;51.72
45403;BME280;47427;51.976;5.326;2023-03-01T18:14:45;102507.00;;;4.46;51.38
45403;BME280;47427;51.976;5.326;2023-03-01T18:18:09;102514.13;;;4.49;51.90
45403;BME280;47427;51.976;5.326;2023-03-01T18:21:31;102513.97;;;4.36;52.67
45403;BME280;47427;51.976;5.326;2023-03-01T18:24:54;102512.78;;;4.32;52.56
45403;BME280;47427;51.976;5.326;2023-03-01T18:28:17;102509.81;;;4.27;53.20
45403;BME280;47427;51.976;5.326;2023-03-01T18:31:38;102519.63;;;4.20;53.32
45403;BME280;47427;51.976;5.326;2023-03-01T18:35:02;102513.81;;;4.12;53.38
45403;BME280;47427;51.976;5.326;2023-03-01T18:38:24;102515.88;;;3.94;54.06
45403;BME280;47427;51.976;5.326;2023-03-01T18:42:06;102521.72;;;3.91;53.85
45403;BME280;47427;51.976;5.326;2023-03-01T18:45:56;102529.28;;;3.88;54.15
45403;BME280;47427;51.976;5.326;2023-03-01T18:49:18;102526.31;;;3.84;54.62
45403;BME280;47427;51.976;5.326;2023-03-01T18:52:40;102521.69;;;3.69;55.14
45403;BME280;47427;51.976;5.326;2023-03-01T18:56:01;102533.78;;;3.59;55.80
45403;BME280;47427;51.976;5.326;2023-03-01T18:59:24;102531.47;;;3.52;55.40
45403;BME280;47427;51.976;5.326;2023-03-01T19:02:47;102529.03;;;3.53;56.36
45403;BME280;47427;51.976;5.326;2023-03-01T19:06:09;102524.09;;;3.46;56.40
45403;BME280;47427;51.976;5.326;2023-03-01T19:09:31;102527.25;;;3.32;56.09
45403;BME280;47427;51.976;5.326;2023-03-01T19:12:54;102525.09;;;3.16;56.74
45403;BME280;47427;51.976;5.326;2023-03-01T19:16:20;102483.25;;;2.91;57.52
45403;BME280;47427;51.976;5.326;2023-03-01T19:19:43;102516.94;;;3.01;57.20
45403;BME280;47427;51.976;5.326;2023-03-01T19:23:05;102521.88;;;2.88;58.01
45403;BME280;47427;51.976;5.326;2023-03-01T19:26:28;102519.16;;;2.76;58.20
45403;BME280;47427;51.976;5.326;2023-03-01T19:29:51;102518.00;;;2.72;59.09
45403;BME280;47427;51.976;5.326;2023-03-01T19:33:13;102519.28;;;2.67;58.73